Salkum, WA

11:56 AM PDT on September 18, 2014 (GMT -0700)
Blue Creek | Change Station
CLOSE
Current Station
Personal Weather Station
Location: Toledo, WA
Elevation: 168 ft
Nearby Weather Stations
4.0 Earthquake: Seabeck, Washington (1 day ago)  

Elev 168 ft 46.48 °N, 122.73 °W | Updated 1 minute ago

Overcast
Overcast
63.8 °F
Feels Like 63.8 °F
N
1.0
Wind Variable Wind from WSW
Gusts 2.0 mph

Today
High -- | Low -- °F
--% Chance of Precip.
Yesterday
High -- | Low -- °F
Precip. -- in
6:52 AM 7:15 PM
Waning Crescent, 25% visible
Pressure 29.86 in
Visibility 10.0 miles
Clouds Few 1600 ft
Scattered Clouds 2300 ft
Overcast 3400 ft
Dew Point 60 °F
Humidity 88%
Rainfall 0.05 in
Snow Depth 0 in , 0 in , 0 in
UV 0.0 out of 12
Pollen .40 out of 12
PM2.5 Good
Flu Activity Not available.
METAR KCLS 181855Z AUTO 00000KT 10SM FEW016 SCT023 OVC034 19/16 A2986 RMK AO2

More Conditions Fewer Conditions

Pressure 29.86 in
Visibility 10.0 miles
Clouds Few 1600 ft
Scattered Clouds 2300 ft
Overcast 3400 ft
Dew Point 60 °F
Humidity 88%
Rainfall 0.05 in
Snow Depth 0 in , 0 in , 0 in
UV 0.0 out of 12
Pollen .40 out of 12
PM2.5 Good
Flu Activity Not available.
METAR KCLS 181855Z AUTO 00000KT 10SM FEW016 SCT023 OVC034 19/16 A2986 RMK AO2

More Conditions Fewer Conditions

10-Day Weather Forecast

Almanac

Astronomy

Sep. 18, 2014 Rise Set
Actual Time 6:52 AM PDT 7:15 PM PDT
Civil Twilight 6:22 AM PDT 7:46 PM PDT
Nautical Twilight 5:46 AM PDT 8:21 PM PDT
Astronomical Twilight 5:09 AM PDT 8:58 PM PDT
Moon 1:35 AM PDT 4:23 PM PDT
Length of Visible Light 13h 23m
Length of Day
12h 23m
Tomorrow will be 3m 17s shorter.
Waning Crescent, 25% of the Moon is Illuminated
Today
Waning Crescent
Sep 24
New
Oct 1
First Quarter
Oct 8
Full
Oct 15
Last Quarter

Today's Extremes

State Highs State Lows

Community

WunderPhotos

Upload Photos

1,754,417 photos uploaded!

Nearby

Air Quality

  Air Quality AQ Index Pollutant
Yesterday Good
PM2.5
Current Good
PM2.5

Snow Depth

Station Depth Elevation
Spencer Meadow 0 in 3400 ft
Mount Crag 0 in 4050 ft
Stevens Pass 0 in 4070 ft
Burnt Mountain 0 in 4200 ft
Skookum Creek 0 in 3920 ft

Earthquake Activity

City Distance Mag. Time & Date
Seabeck, Washington 73 miles 4.0 3:06 AM PDT
2014-09-17
Morton, Washington 18 miles 3.0 5:43 AM PDT
2014-09-16
Minimum magnitude displayed is 2.5.

Coastal Water Temperatures

Place Temperature
No Stations Reporting

Nearby Weather Stations